createdAt,value
2018-06-08T00:09:23.695Z,3.34
2018-06-08T00:20:22.221Z,3.34
2018-06-08T00:31:25.888Z,3.34
2018-06-08T00:42:29.832Z,3.34
2018-06-08T00:53:27.015Z,3.34
2018-06-08T01:04:31.008Z,3.34
2018-06-08T01:15:30.808Z,3.33
2018-06-08T01:26:34.339Z,3.33
2018-06-08T01:37:34.293Z,3.33
2018-06-08T01:48:37.151Z,3.33
2018-06-08T01:59:36.000Z,3.33
2018-06-08T02:10:39.443Z,3.32
2018-06-08T02:21:41.840Z,3.32
2018-06-08T02:32:42.145Z,3.32
2018-06-08T02:43:41.151Z,3.32
2018-06-08T02:54:44.360Z,3.32
2018-06-08T03:05:44.440Z,3.31
2018-06-08T03:16:41.788Z,3.31
2018-06-08T03:27:37.998Z,3.31
2018-06-08T03:38:41.856Z,3.31
2018-06-08T03:49:42.853Z,3.31
2018-06-08T04:00:45.288Z,3.31
2018-06-08T04:11:46.710Z,3.32
2018-06-08T04:22:46.566Z,3.32
2018-06-08T04:33:46.249Z,3.32
2018-06-08T04:44:47.965Z,3.32
2018-06-08T04:55:48.876Z,3.33
2018-06-08T05:06:51.432Z,3.33
2018-06-08T05:17:55.241Z,3.33
2018-06-08T05:28:56.303Z,3.34
2018-06-08T05:39:51.516Z,3.34
2018-06-08T05:50:48.018Z,3.34
2018-06-08T06:01:47.776Z,3.36
2018-06-08T06:12:50.335Z,3.36
2018-06-08T06:23:52.566Z,3.38
2018-06-08T06:34:55.923Z,3.38
2018-06-08T06:45:58.672Z,3.39
2018-06-08T06:57:00.845Z,3.39
2018-06-08T07:08:03.518Z,3.39
2018-06-08T07:19:01.386Z,3.39
2018-06-08T07:29:57.332Z,3.40
2018-06-08T07:40:59.560Z,3.43
2018-06-08T07:51:59.741Z,3.45
2018-06-08T08:03:01.789Z,3.41
2018-06-08T08:14:03.820Z,3.40
2018-06-08T08:25:03.168Z,3.41
2018-06-08T08:36:02.126Z,3.40
2018-06-08T08:47:01.521Z,3.46
2018-06-08T08:58:00.333Z,3.43
2018-06-08T09:08:58.389Z,3.42
2018-06-08T09:19:33.752Z,3.44
2018-06-08T09:30:33.681Z,3.42
2018-06-08T09:41:36.417Z,3.42
2018-06-08T09:52:36.860Z,3.41
2018-06-08T10:03:34.747Z,3.41
2018-06-08T10:14:37.547Z,3.40
2018-06-08T10:25:38.095Z,3.42
2018-06-08T10:36:42.206Z,3.41
2018-06-08T10:47:40.344Z,3.41
2018-06-08T10:58:44.362Z,3.40
2018-06-08T11:09:45.584Z,3.40
2018-06-08T11:20:47.129Z,3.40
2018-06-08T11:31:47.350Z,3.40
2018-06-08T11:42:46.276Z,3.40
2018-06-08T11:53:25.907Z,3.40
2018-06-08T12:04:11.197Z,3.40
2018-06-08T12:14:53.998Z,3.40
2018-06-08T12:25:43.281Z,3.40
2018-06-08T12:36:28.450Z,3.40
2018-06-08T12:47:15.389Z,3.39
2018-06-08T12:58:04.471Z,3.39
2018-06-08T13:08:47.045Z,3.39
2018-06-08T13:19:34.018Z,3.43
2018-06-08T13:30:16.082Z,3.42
2018-06-08T13:40:56.840Z,3.42
2018-06-08T13:51:40.330Z,3.42
2018-06-08T14:02:31.042Z,3.41
2018-06-08T14:13:32.383Z,3.41
2018-06-08T14:24:16.116Z,3.41
2018-06-08T14:35:03.235Z,3.40
2018-06-08T14:46:01.525Z,3.40
2018-06-08T14:57:01.161Z,3.42
2018-06-08T15:07:54.653Z,3.42
2018-06-08T15:18:50.577Z,3.42
2018-06-08T15:29:50.792Z,3.41
2018-06-08T15:40:53.683Z,3.41
2018-06-08T15:51:53.104Z,3.40
2018-06-08T16:02:46.462Z,3.40
2018-06-08T16:13:45.731Z,3.40
2018-06-08T16:24:47.684Z,3.40
2018-06-08T16:35:43.364Z,3.40
2018-06-08T16:46:44.975Z,3.40
2018-06-08T16:57:47.023Z,3.39
2018-06-08T17:08:49.865Z,3.39
2018-06-08T17:19:53.446Z,3.39
2018-06-08T17:30:54.499Z,3.38
2018-06-08T17:41:52.719Z,3.38
2018-06-08T17:52:48.902Z,3.38
2018-06-08T18:03:45.429Z,3.37
2018-06-08T18:14:46.454Z,3.37
2018-06-08T18:25:46.994Z,3.37
2018-06-08T18:36:55.209Z,3.34
2018-06-08T18:47:48.925Z,3.36
2018-06-08T18:58:29.733Z,3.36
2018-06-08T19:09:25.722Z,3.36
2018-06-08T19:20:20.783Z,3.36
2018-06-08T19:31:19.812Z,3.35
2018-06-08T19:42:19.720Z,3.34
2018-06-08T19:53:18.414Z,3.34
2018-06-08T20:04:18.828Z,3.34
2018-06-08T20:15:16.111Z,3.34
2018-06-08T20:26:11.953Z,3.34
2018-06-08T20:37:14.325Z,3.34
2018-06-08T20:48:12.269Z,3.33
2018-06-08T20:59:00.958Z,3.33
2018-06-08T21:09:56.732Z,3.33
2018-06-08T21:20:56.280Z,3.33
2018-06-08T21:31:57.060Z,3.33
2018-06-08T21:42:59.280Z,3.33
2018-06-08T21:53:57.062Z,3.32
2018-06-08T22:04:53.054Z,3.32
2018-06-08T22:15:53.226Z,3.32
2018-06-08T22:26:50.937Z,3.32
2018-06-08T22:37:52.689Z,3.31
2018-06-08T22:48:55.983Z,3.31
2018-06-08T23:00:00.031Z,3.31
2018-06-08T23:11:01.522Z,3.31
2018-06-08T23:22:00.974Z,3.31
2018-06-08T23:33:00.434Z,3.30
2018-06-08T23:44:00.124Z,3.30
2018-06-08T23:55:02.462Z,3.30
